LELO

Logroño-Agoncillo Airport

Airport
ICAO code
LELO
IATA Code
RJL
Summary
ICAO Region
EUR
ICAO Territory
Location

,

Serving
Logroño-Agoncillo
Elevation
1161 ft
Coordinates
42° 27' 15" N , 2° 19' 15" W
Metar
Observation
LELO 050100Z AUTO 09004KT 9000 OVC010 04/02 Q1016
Station
Logrono / Agoncillo
Date/Time
2022-12-05 01:00:00
Wind direction
90°
Wind speed
04 kts
Lowest cloud amount
overcast
Temperature
4°C
Dew point
2°C
Humidity
86%
QNH
1016 hPa
Weather condition
n/a

Airport map

Aerial View

SKYbrary Partners:

Safety knowledge contributed by: